Time;durP1;ratioP1;P1;durP2;ratioP2;P2;SDS_P1;SDS_P2;PMS_P1;PMS_P2;Temp;Humidity;BMP_temperature;BMP_pressure;BME280_temperature;BME280_humidity;BME280_pressure;Samples;Min_cycle;Max_cycle;Signal;HPM_P1;HPM_P2
2022/07/14 00:01:47;;;;;;;;;;;;;;;;;;;;;
2022/07/14 00:05:17;;;;;;;;;;;;;;;;;;;;;
2022/07/14 00:08:18;;;;;;;;;;;;;;;;;;;;;
2022/07/14 00:11:46;;;;;;;;;;;;;;;;;;;;;
2022/07/14 00:18:11;;;;;;;;;;;;;;;;;;;;;
2022/07/14 00:21:43;;;;;;;;;12.75;9.75;;;;;27.91;33.69;101519.19;6209438;22;73161;-80
2022/07/14 00:24:34;;;;;;;;;13.00;11.00;;;;;27.92;33.87;101529.03;6120429;23;45415;-80
2022/07/14 00:27:38;;;;;;;;;12.25;12.00;;;;;27.87;33.83;101522.16;6119117;22;45476;-80
2022/07/14 00:31:03;;;;;;;;;10.25;10.25;;;;;27.86;33.89;101517.75;6217254;22;46525;-80
2022/07/14 00:34:29;;;;;;;;;;;;;;;;;;;;;
2022/07/14 00:37:28;;;;;;;;;13.75;10.50;;;;;27.74;33.83;101508.50;6215481;22;68822;-80
2022/07/14 00:44:16;;;;;;;;;10.50;9.50;;;;;27.67;33.99;101513.47;6083075;22;45445;-79
2022/07/14 00:47:47;;;;;;;;;13.75;11.00;;;;;27.62;34.13;101525.56;6099031;23;45408;-79
2022/07/14 00:57:46;;;;;;;;;6.25;4.50;;;;;27.26;35.00;101545.78;6211705;22;46361;-79
2022/07/14 01:00:24;;;;;;;;;9.50;9.50;;;;;27.09;35.16;101537.81;6197874;22;45161;-80
2022/07/14 01:07:15;;;;;;;;;;;;;;;;;;;;;
2022/07/14 01:10:19;;;;;;;;;;;;;;;;;;;;;
2022/07/14 01:13:41;;;;;;;;;;;;;;;;;;;;;
2022/07/14 01:19:53;;;;;;;;;;;;;;;;;;;;;
2022/07/14 01:25:52;;;;;;;;;;;;;;;;;;;;;
2022/07/14 01:30:17;;;;;;;;;;;;;;;;;;;;;
2022/07/14 01:32:33;;;;;;;;;;;;;;;;;;;;;
2022/07/14 01:35:42;;;;;;;;;12.25;12.25;;;;;26.31;36.43;101575.66;6215287;22;76438;-79
2022/07/14 01:39:39;;;;;;;;;;;;;;;;;;;;;
2022/07/14 01:42:26;;;;;;;;;5.00;5.00;;;;;26.16;36.53;101572.81;6156795;22;45160;-79
2022/07/14 01:45:39;;;;;;;;;;;;;;;;;;;;;
2022/07/14 01:48:20;;;;;;;;;;;;;;;;;;;;;
2022/07/14 01:51:08;;;;;;;;;6.75;6.75;;;;;26.05;36.73;101569.88;6215809;22;72922;-80
2022/07/14 01:57:08;;;;;;;;;;;;;;;;;;;;;
2022/07/14 02:00:15;;;;;;;;;;;;;;;;;;;;;
2022/07/14 02:04:10;;;;;;;;;;;;;;;;;;;;;
2022/07/14 02:06:40;;;;;;;;;7.50;7.50;;;;;25.88;37.55;101560.00;6189206;22;45237;-80
2022/07/14 02:12:55;;;;;;;;;9.00;9.00;;;;;25.81;37.34;101545.06;6216747;22;45658;-79
2022/07/14 02:25:53;;;;;;;;;7.25;6.25;;;;;25.64;39.06;101523.56;6215054;22;47332;-79
2022/07/14 02:28:31;;;;;;;;;4.50;4.50;;;;;25.66;39.02;101527.03;6175488;22;45523;-79
2022/07/14 02:31:45;;;;;;;;;;;;;;;;;;;;;
2022/07/14 02:35:01;;;;;;;;;6.00;5.25;;;;;25.53;39.23;101525.00;6208199;22;74340;-80
2022/07/14 02:47:49;;;;;;;;;7.25;5.75;;;;;25.43;40.01;101521.06;6123934;23;45357;-80
2022/07/14 02:50:40;;;;;;;;;;;;;;;;;;;;;
2022/07/14 02:53:41;;;;;;;;;;;;;;;;;;;;;
2022/07/14 02:56:29;;;;;;;;;4.00;4.00;;;;;25.20;40.63;101511.50;6226320;22;67473;-80
2022/07/14 02:59:02;;;;;;;;;6.50;6.50;;;;;25.22;41.38;101520.38;6246537;22;45398;-79
2022/07/14 03:02:12;;;;;;;;;;;;;;;;;;;;;
2022/07/14 03:05:16;;;;;;;;;6.00;5.00;;;;;25.14;41.59;101527.09;6207524;22;71767;-79
2022/07/14 03:08:19;;;;;;;;;8.00;5.75;;;;;25.11;41.39;101521.88;6219996;22;45355;-79
2022/07/14 03:11:49;;;;;;;;;;;;;;;;;;;;;
2022/07/14 03:14:53;;;;;;;;;;;;;;;;;;;;;
2022/07/14 03:18:23;;;;;;;;;;;;;;;;;;;;;
2022/07/14 03:24:57;;;;;;;;;8.75;6.00;;;;;24.84;42.44;101507.03;6247233;22;46187;-80
2022/07/14 03:28:26;;;;;;;;;;;;;;;;;;;;;
2022/07/14 03:31:45;;;;;;;;;9.25;6.25;;;;;24.87;42.87;101514.09;6214472;22;72919;-79
2022/07/14 03:38:07;;;;;;;;;7.25;6.50;;;;;24.78;42.88;101511.84;6123766;23;45220;-79
2022/07/14 03:41:25;;;;;;;;;7.75;5.75;;;;;24.77;43.34;101523.59;6093783;23;47119;-79
2022/07/14 03:45:07;;;;;;;;;;;;;;;;;;;;;
2022/07/14 03:48:06;;;;;;;;;;;;;;;;;;;;;
2022/07/14 03:53:58;;;;;;;;;9.75;8.25;;;;;24.40;43.69;101518.22;6220527;22;45903;-79
2022/07/14 03:56:33;;;;;;;;;;;;;;;;;;;;;
2022/07/14 03:59:15;;;;;;;;;8.50;7.25;;;;;24.31;43.98;101518.66;6216446;22;68770;-79
2022/07/14 04:01:51;;;;;;;;;7.50;6.00;;;;;24.24;44.80;101506.44;6217490;22;45321;-79
2022/07/14 04:04:28;;;;;;;;;6.75;6.50;;;;;24.21;45.04;101506.56;6189465;22;47233;-80
2022/07/14 04:07:02;;;;;;;;;8.00;7.75;;;;;24.23;44.56;101511.91;6189813;22;45305;-79
2022/07/14 04:10:01;;;;;;;;;6.00;5.75;;;;;24.21;45.04;101507.44;6189990;22;45282;-80
2022/07/14 04:12:37;;;;;;;;;6.75;6.75;;;;;24.20;45.22;101511.09;6189995;22;45262;-79
2022/07/14 04:15:11;;;;;;;;;7.50;7.50;;;;;24.28;45.02;101520.63;6217090;22;45824;-79
2022/07/14 04:17:54;;;;;;;;;7.75;7.75;;;;;24.28;45.16;101516.09;6216275;22;45258;-79
2022/07/14 04:20:41;;;;;;;;;;;;;;;;;;;;;
2022/07/14 04:23:18;;;;;;;;;6.50;6.50;;;;;24.30;45.30;101533.06;6215395;22;72800;-81
2022/07/14 04:25:49;;;;;;;;;10.50;7.00;;;;;24.21;45.37;101517.34;6189428;22;46810;-81
2022/07/14 04:28:24;;;;;;;;;8.00;8.00;;;;;24.22;45.40;101527.19;6217309;22;45375;-80
2022/07/14 04:30:55;;;;;;;;;9.50;9.50;;;;;24.19;45.47;101530.00;6189337;22;45348;-80
2022/07/14 04:33:25;;;;;;;;;9.25;8.50;;;;;24.21;45.75;101525.41;6217208;22;45190;-81
2022/07/14 04:35:52;;;;;;;;;7.25;6.50;;;;;24.19;45.75;101528.19;6189148;22;47142;-80
2022/07/14 04:38:29;;;;;;;;;7.75;7.00;;;;;24.11;45.99;101535.78;6190121;22;45167;-80
2022/07/14 04:41:00;;;;;;;;;8.00;8.00;;;;;24.14;45.76;101534.75;6191957;22;45221;-80
2022/07/14 04:43:33;;;;;;;;;10.25;9.00;;;;;24.15;46.30;101547.25;6189024;22;45722;-80
2022/07/14 04:46:18;;;;;;;;;;;;;;;;;;;;;
2022/07/14 04:54:30;;;;;;;;;9.00;8.75;;;;;24.12;46.13;101537.50;6216939;22;45412;-80
2022/07/14 04:57:01;;;;;;;;;6.75;6.75;;;;;24.06;46.42;101527.03;6236650;22;46471;-80
2022/07/14 04:59:30;;;;;;;;;7.00;7.00;;;;;24.07;46.41;101533.28;6247838;22;45352;-80
2022/07/14 05:01:58;;;;;;;;;9.00;8.25;;;;;24.04;46.43;101538.81;6247255;22;45232;-81
2022/07/14 05:04:28;;;;;;;;;7.50;7.50;;;;;23.97;46.34;101531.00;6216576;22;45777;-81
2022/07/14 05:07:04;;;;;;;;;11.25;10.25;;;;;23.94;46.30;101533.84;6247359;22;45196;-81
2022/07/14 05:09:38;;;;;;;;;9.00;9.00;;;;;23.90;46.46;101534.97;6219810;22;45758;-80
2022/07/14 05:12:06;;;;;;;;;6.25;6.25;;;;;23.92;46.76;101541.16;6220230;22;45254;-80
2022/07/14 05:14:33;;;;;;;;;7.75;7.75;;;;;23.89;47.12;101529.63;6220496;22;45229;-81
2022/07/14 05:17:01;;;;;;;;;7.00;7.00;;;;;23.92;46.78;101533.09;6220237;22;48326;-79
2022/07/14 05:19:37;;;;;;;;;8.00;7.00;;;;;23.95;46.69;101534.72;6247566;22;45213;-79
2022/07/14 05:22:07;;;;;;;;;9.00;8.00;;;;;23.90;46.63;101532.28;6220035;22;45332;-79
2022/07/14 05:24:38;;;;;;;;;8.75;7.75;;;;;23.88;47.08;101535.97;6248212;22;45098;-79
2022/07/14 05:27:17;;;;;;;;;12.00;7.25;;;;;23.77;47.04;101528.41;6247869;22;45349;-79
2022/07/14 05:29:50;;;;;;;;;7.75;6.75;;;;;23.73;47.33;101533.03;6245378;22;45297;-79
2022/07/14 05:32:26;;;;;;;;;10.75;9.00;;;;;23.71;47.62;101543.00;6246567;22;45248;-78
2022/07/14 05:34:59;;;;;;;;;9.75;9.25;;;;;23.68;47.72;101534.16;6220127;22;45268;-79
2022/07/14 05:37:32;;;;;;;;;9.00;7.75;;;;;23.66;47.65;101545.00;6219962;22;47097;-79
2022/07/14 05:40:00;;;;;;;;;11.00;9.25;;;;;23.65;47.14;101542.38;6247837;22;45327;-79
2022/07/14 05:42:31;;;;;;;;;9.00;9.00;;;;;23.67;47.72;101552.13;6245956;22;45671;-79
2022/07/14 05:45:01;;;;;;;;;9.50;7.75;;;;;23.64;47.88;101543.31;6220591;22;45826;-79
2022/07/14 05:47:29;;;;;;;;;7.75;7.75;;;;;23.69;47.88;101557.44;6247556;22;45604;-77
2022/07/14 05:49:59;;;;;;;;;7.25;7.25;;;;;23.69;47.85;101550.22;6247445;22;45357;-76
2022/07/14 05:52:30;;;;;;;;;9.50;8.50;;;;;23.73;47.70;101559.06;6220131;22;45406;-77
2022/07/14 05:55:29;;;;;;;;;12.00;9.00;;;;;23.77;47.95;101556.16;6247348;22;46187;-80
2022/07/14 05:58:36;;;;;;;;;11.50;9.25;;;;;23.83;47.92;101564.91;6217177;22;45429;-80
2022/07/14 06:01:13;;;;;;;;;9.00;9.00;;;;;23.88;47.75;101562.88;6196735;22;45220;-79
2022/07/14 06:03:57;;;;;;;;;;;;;;;;;;;;;
2022/07/14 06:06:28;;;;;;;;;10.25;9.25;;;;;24.04;47.75;101565.72;6204194;22;71860;-79
2022/07/14 06:09:10;;;;;;;;;10.50;10.50;;;;;24.16;47.94;101562.44;6189218;22;47202;-79
2022/07/14 06:14:40;;;;;;;;;8.00;8.00;;;;;24.41;47.63;101565.72;6215615;22;45419;-79
2022/07/14 06:17:14;;;;;;;;;9.00;9.00;;;;;24.50;47.01;101561.72;6216621;22;45344;-80
2022/07/14 06:19:47;;;;;;;;;11.25;10.50;;;;;24.60;47.00;101560.31;6188381;22;47768;-79
2022/07/14 06:25:17;;;;;;;;;9.25;9.00;;;;;24.59;46.45;101557.69;6217105;22;45391;-80
2022/07/14 06:28:06;;;;;;;;;;;;;;;;;;;;;
2022/07/14 06:34:50;;;;;;;;;;;;;;;;;;;;;
2022/07/14 06:38:15;;;;;;;;;;;;;;;;;;;;;
2022/07/14 06:45:19;;;;;;;;;7.75;7.75;;;;;24.67;46.82;101570.78;6158350;22;46077;-79
2022/07/14 06:54:51;;;;;;;;;;;;;;;;;;;;;
2022/07/14 06:57:59;;;;;;;;;11.75;10.25;;;;;24.76;46.23;101565.81;6232412;22;75191;-79
2022/07/14 07:01:07;;;;;;;;;;;;;;;;;;;;;
2022/07/14 07:09:59;;;;;;;;;11.50;10.25;;;;;25.03;46.79;101573.47;6162649;22;47180;-79
2022/07/14 07:12:39;;;;;;;;;;;;;;;;;;;;;
2022/07/14 07:15:13;;;;;;;;;13.00;12.25;;;;;25.13;45.94;101558.56;6243247;22;68981;-79
2022/07/14 07:17:41;;;;;;;;;9.00;9.00;;;;;25.21;46.08;101559.06;6245766;22;45577;-79
2022/07/14 07:20:09;;;;;;;;;11.25;10.00;;;;;25.33;46.04;101562.06;6215865;22;46377;-79
2022/07/14 07:22:39;;;;;;;;;10.00;10.00;;;;;25.43;45.34;101560.63;6243575;22;45501;-79
2022/07/14 07:25:10;;;;;;;;;14.00;11.75;;;;;25.55;45.52;101561.78;6246183;22;45355;-79
2022/07/14 07:27:40;;;;;;;;;10.75;9.00;;;;;25.60;45.38;101560.59;6245000;22;45524;-79
2022/07/14 07:30:14;;;;;;;;;12.50;11.75;;;;;25.67;45.06;101559.31;6244359;22;45356;-79
2022/07/14 07:32:46;;;;;;;;;10.00;9.75;;;;;25.73;45.22;101567.06;6244851;22;45438;-79
2022/07/14 07:35:12;;;;;;;;;14.50;11.50;;;;;25.75;45.20;101559.78;6244579;22;45733;-79
2022/07/14 07:37:45;;;;;;;;;10.25;10.25;;;;;25.78;44.87;101558.72;6244047;22;45343;-79
2022/07/14 07:40:34;;;;;;;;;;;;;;;;;;;;;
2022/07/14 07:43:05;;;;;;;;;13.00;10.75;;;;;25.79;44.94;101565.84;6243484;22;71932;-79
2022/07/14 07:45:40;;;;;;;;;11.50;11.25;;;;;25.77;44.84;101565.09;6219983;22;45466;-79
2022/07/14 07:48:17;;;;;;;;;11.00;11.00;;;;;25.76;44.69;101560.63;6215999;22;45441;-78
2022/07/14 07:50:46;;;;;;;;;11.25;11.00;;;;;25.81;44.69;101565.78;6242499;22;46238;-79
2022/07/14 07:53:14;;;;;;;;;11.50;10.50;;;;;25.84;44.82;101554.84;6217535;22;45439;-79
2022/07/14 07:56:02;;;;;;;;;10.00;8.50;;;;;25.88;44.64;101551.91;6247992;22;45260;-79
2022/07/14 07:58:30;;;;;;;;;11.00;9.00;;;;;25.91;44.58;101557.13;6248716;22;45101;-79
2022/07/14 08:01:26;;;;;;;;;12.50;12.00;;;;;26.00;44.19;101550.34;6247830;22;46222;-80
2022/07/14 08:04:22;;;;;;;;;;;;;;;;;;;;;
2022/07/14 08:06:52;;;;;;;;;11.50;10.00;;;;;26.20;44.03;101553.78;6247421;22;67752;-80
2022/07/14 08:09:27;;;;;;;;;11.75;11.25;;;;;26.27;43.50;101561.44;6247918;22;45310;-80
2022/07/14 08:11:58;;;;;;;;;9.50;9.25;;;;;26.33;43.51;101546.69;6244667;22;48302;-80
2022/07/14 08:17:22;;;;;;;;;10.00;9.00;;;;;26.36;42.80;101542.03;6247579;22;45389;-80
2022/07/14 08:19:56;;;;;;;;;11.00;10.00;;;;;26.37;42.57;101553.69;6246950;22;45359;-79
2022/07/14 08:22:38;;;;;;;;;8.00;8.00;;;;;26.39;42.73;101549.06;6247756;22;46177;-82
2022/07/14 08:25:11;;;;;;;;;10.75;10.25;;;;;26.45;42.74;101542.44;6247880;22;45241;-80
2022/07/14 08:27:50;;;;;;;;;13.50;10.75;;;;;26.49;42.71;101549.41;6247771;22;45209;-82
2022/07/14 08:30:38;;;;;;;;;;;;;;;;;;;;;
2022/07/14 08:33:20;;;;;;;;;12.00;11.00;;;;;26.66;42.21;101543.06;6246227;22;74624;-80
2022/07/14 08:36:01;;;;;;;;;12.00;12.00;;;;;26.78;42.21;101540.53;6243045;22;45385;-79
2022/07/14 08:38:32;;;;;;;;;10.00;9.00;;;;;26.91;42.48;101537.94;6245441;22;45451;-79
2022/07/14 08:41:04;;;;;;;;;10.00;10.00;;;;;27.00;41.92;101534.69;6245632;22;45158;-80
2022/07/14 08:43:37;;;;;;;;;9.50;9.50;;;;;27.15;42.02;101532.88;6245577;22;46111;-79
2022/07/14 08:46:36;;;;;;;;;11.00;10.50;;;;;27.35;41.40;101528.16;6219079;22;45908;-81
2022/07/14 08:49:42;;;;;;;;;10.25;9.50;;;;;27.50;40.97;101521.75;6220090;22;45312;-83
2022/07/14 09:03:22;;;;;;;;;5.25;5.25;;;;;27.85;39.22;101537.63;6165074;22;45623;-83
2022/07/14 09:06:20;;;;;;;;;;;;;;;;;;;;;
2022/07/14 09:09:34;;;;;;;;;7.00;7.00;;;;;27.91;38.92;101535.41;6245164;22;75984;-84
2022/07/14 09:12:30;;;;;;;;;10.50;10.50;;;;;27.93;38.94;101529.88;6216451;22;45554;-83
2022/07/14 09:18:11;;;;;;;;;10.25;10.25;;;;;27.99;38.75;101518.69;6277584;22;45390;-83
2022/07/14 09:20:41;;;;;;;;;9.50;9.00;;;;;28.04;39.02;101519.25;6278095;22;46632;-76
2022/07/14 09:23:12;;;;;;;;;6.00;6.00;;;;;28.11;38.82;101515.16;6277387;22;45366;-76
2022/07/14 09:25:42;;;;;;;;;6.75;6.75;;;;;28.18;38.18;101517.50;6277441;22;45255;-76
2022/07/14 09:28:09;;;;;;;;;7.75;7.00;;;;;28.30;37.67;101517.53;6249726;22;45438;-76
2022/07/14 09:30:53;;;;;;;;;8.75;8.75;;;;;28.37;37.89;101515.31;6249534;22;46285;-76
2022/07/14 09:33:23;;;;;;;;;8.75;8.00;;;;;28.50;37.26;101523.53;6277495;22;45300;-76
2022/07/14 09:36:03;;;;;;;;;8.75;7.00;;;;;28.57;37.16;101523.00;6277281;22;45443;-77
2022/07/14 09:38:50;;;;;;;;;9.25;8.25;;;;;28.63;36.98;101523.53;6277409;22;45439;-76
2022/07/14 09:41:20;;;;;;;;;7.75;6.25;;;;;28.67;36.23;101525.94;6277531;22;46287;-77
2022/07/14 09:44:29;;;;;;;;;7.25;7.25;;;;;28.72;36.11;101523.81;6277214;22;45358;-77
2022/07/14 09:47:02;;;;;;;;;7.75;7.00;;;;;28.74;35.50;101521.84;6152576;23;45285;-77
2022/07/14 09:49:32;;;;;;;;;7.50;7.50;;;;;28.76;35.16;101529.88;6127839;23;45439;-76
2022/07/14 09:52:16;;;;;;;;;;;;;;;;;;;;;
2022/07/14 09:59:14;;;;;;;;;5.25;4.50;;;;;29.00;35.38;101530.03;6242239;22;45455;-81
2022/07/14 10:02:28;;;;;;;;;;;;;;;;;;;;;
2022/07/14 10:05:29;;;;;;;;;6.75;6.50;;;;;29.22;34.96;101521.34;6274448;22;75318;-82
2022/07/14 10:08:37;;;;;;;;;;;;;;;;;;;;;
2022/07/14 10:11:10;;;;;;;;;6.00;6.00;;;;;29.48;34.06;101519.47;6272468;22;69176;-80
2022/07/14 10:14:20;;;;;;;;;;;;;;;;;;;;;
2022/07/14 10:20:52;;;;;;;;;;;;;;;;;;;;;
2022/07/14 10:23:41;;;;;;;;;4.25;4.25;;;;;29.85;33.56;101523.16;6274613;22;68642;-81
2022/07/14 10:26:39;;;;;;;;;6.25;6.25;;;;;29.90;32.96;101523.69;6246910;22;45450;-80
2022/07/14 10:29:34;;;;;;;;;5.00;5.00;;;;;30.01;32.99;101530.19;6275320;22;45766;-80
2022/07/14 10:32:37;;;;;;;;;6.00;6.00;;;;;30.13;33.11;101526.56;6247180;22;45316;-80
2022/07/14 10:35:59;;;;;;;;;;;;;;;;;;;;;
2022/07/14 10:39:04;;;;;;;;;;;;;;;;;;;;;
2022/07/14 10:41:56;;;;;;;;;;;;;;;;;;;;;
2022/07/14 10:45:02;;;;;;;;;5.00;5.00;;;;;30.62;31.99;101522.91;6273628;22;73156;-81
2022/07/14 10:47:49;;;;;;;;;5.00;5.00;;;;;30.82;31.13;101528.72;6246563;22;45342;-81
2022/07/14 10:51:14;;;;;;;;;;;;;;;;;;;;;
2022/07/14 11:01:40;;;;;;;;;5.00;5.00;;;;;31.47;30.23;101517.28;6089915;23;45323;-81
2022/07/14 11:04:23;;;;;;;;;4.75;4.75;;;;;31.66;29.65;101511.22;6130114;22;46146;-81
2022/07/14 11:07:30;;;;;;;;;5.00;4.25;;;;;31.76;29.06;101505.91;6192774;22;46309;-80
2022/07/14 11:10:06;;;;;;;;;10.00;9.00;;;;;31.89;29.23;101508.47;6213035;22;45322;-80
2022/07/14 11:13:06;;;;;;;;;5.50;5.50;;;;;32.02;28.87;101515.56;6238979;22;45589;-80
2022/07/14 11:16:10;;;;;;;;;;;;;;;;;;;;;
2022/07/14 11:18:48;;;;;;;;;5.00;5.00;;;;;32.29;28.98;101515.13;6212004;22;75706;-79
2022/07/14 11:21:31;;;;;;;;;3.33;3.33;;;;;32.41;28.44;101515.09;6215658;22;45556;-80
2022/07/14 11:27:24;;;;;;;;;4.00;4.00;;;;;32.63;27.04;101509.56;6215137;22;45414;-80
2022/07/14 11:29:57;;;;;;;;;5.50;5.00;;;;;32.73;27.18;101517.84;6238731;22;48109;-80
2022/07/14 11:33:20;;;;;;;;;3.50;3.50;;;;;32.85;27.61;101513.19;6213290;22;45392;-79
2022/07/14 11:38:46;;;;;;;;;5.00;5.00;;;;;32.82;26.68;101503.41;6215620;22;45481;-81
2022/07/14 11:41:33;;;;;;;;;4.75;4.75;;;;;32.93;26.30;101508.84;6213072;22;48103;-80
2022/07/14 11:47:45;;;;;;;;;;;;;;;;;;;;;
2022/07/14 11:58:15;;;;;;;;;;;;;;;;;;;;;
2022/07/14 12:01:28;;;;;;;;;;;;;;;;;;;;;
2022/07/14 12:04:38;;;;;;;;;3.50;3.50;;;;;33.34;24.34;101489.88;6243449;22;72698;-81
2022/07/14 12:07:33;;;;;;;;;4.00;3.00;;;;;33.48;23.83;101489.50;6218341;22;46520;-80
2022/07/14 12:10:20;;;;;;;;;3.00;3.00;;;;;33.64;23.47;101496.34;6276828;22;45405;-80
2022/07/14 12:12:56;;;;;;;;;3.50;3.00;;;;;33.80;23.44;101499.44;6274690;22;45671;-79
2022/07/14 12:15:31;;;;;;;;;3.00;3.00;;;;;33.90;22.88;101492.13;6273719;22;45972;-79
2022/07/14 12:18:11;;;;;;;;;3.75;3.75;;;;;34.03;23.32;101479.06;6248210;22;47615;-79
2022/07/14 12:20:59;;;;;;;;;3.00;3.00;;;;;34.16;23.25;101492.50;6276220;22;45498;-80
2022/07/14 12:23:25;;;;;;;;;4.00;4.00;;;;;34.25;23.08;101482.59;6249781;22;45428;-79
2022/07/14 12:26:10;;;;;;;;;3.25;2.25;;;;;34.31;22.08;101487.47;6275353;22;45502;-79
2022/07/14 12:32:15;;;;;;;;;3.25;3.25;;;;;34.24;22.07;101494.50;6250246;22;45499;-81
2022/07/14 12:38:22;;;;;;;;;2.00;2.00;;;;;34.36;21.92;101481.59;6177490;23;45486;-81
2022/07/14 12:52:18;;;;;;;;;4.00;4.00;;;;;34.76;21.78;101486.94;6100250;23;45451;-82
2022/07/14 12:55:42;;;;;;;;;;;;;;;;;;;;;
2022/07/14 12:58:58;;;;;;;;;;;;;;;;;;;;;
2022/07/14 13:02:28;;;;;;;;;;;;;;;;;;;;;
2022/07/14 13:05:07;;;;;;;;;5.00;5.00;;;;;35.05;21.58;101488.78;6072317;23;72820;-81
2022/07/14 13:11:29;;;;;;;;;6.00;5.25;;;;;35.10;21.24;101490.09;6111066;23;45470;-80
2022/07/14 13:18:20;;;;;;;;;;;;;;;;;;;;;
2022/07/14 13:21:23;;;;;;;;;7.00;7.00;;;;;35.13;20.69;101486.19;6208954;22;45866;-81
2022/07/14 13:24:17;;;;;;;;;9.50;7.75;;;;;35.27;21.04;101480.25;6174025;22;45393;-81
2022/07/14 13:30:07;;;;;;;;;18.50;17.50;;;;;35.27;21.00;101479.38;6217011;22;44806;-78
2022/07/14 13:32:41;;;;;;;;;22.75;21.75;;;;;35.31;20.87;101489.91;6212999;22;46645;-79
2022/07/14 13:35:20;;;;;;;;;16.50;14.50;;;;;35.31;20.83;101492.63;6188947;22;45646;-79
2022/07/14 13:37:56;;;;;;;;;15.25;15.25;;;;;35.25;21.14;101487.72;6216480;22;45169;-79
2022/07/14 13:40:47;;;;;;;;;13.00;13.00;;;;;35.31;21.24;101481.69;6213931;22;45712;-79
2022/07/14 13:43:26;;;;;;;;;7.75;7.75;;;;;35.39;21.12;101494.59;6208007;22;48045;-79
2022/07/14 13:46:04;;;;;;;;;10.00;10.00;;;;;35.49;21.30;101487.22;6216293;22;45107;-79
2022/07/14 13:48:47;;;;;;;;;13.25;11.25;;;;;35.54;21.45;101489.50;6216683;22;45324;-80
2022/07/14 13:54:14;;;;;;;;;7.25;7.25;;;;;35.48;21.20;101488.25;6216732;22;45402;-79
2022/07/14 13:57:02;;;;;;;;;;;;;;;;;;;;;
2022/07/14 13:59:31;;;;;;;;;7.00;7.00;;;;;35.38;21.56;101487.41;6215954;22;68764;-79
2022/07/14 14:02:05;;;;;;;;;6.75;6.75;;;;;35.38;21.60;101495.63;6237433;22;45422;-79
2022/07/14 14:04:57;;;;;;;;;;;;;;;;;;;;;
2022/07/14 14:07:28;;;;;;;;;6.25;6.25;;;;;35.28;21.92;101492.91;6246011;22;72779;-80
2022/07/14 14:10:04;;;;;;;;;7.50;7.00;;;;;35.29;22.17;101485.56;6247701;22;45223;-79
2022/07/14 14:12:59;;;;;;;;;6.75;6.00;;;;;35.27;21.97;101487.59;6244718;22;45753;-79
2022/07/14 14:15:27;;;;;;;;;6.25;6.25;;;;;35.24;22.34;101480.53;6244615;22;56990;-80
2022/07/14 14:17:58;;;;;;;;;4.50;4.50;;;;;35.31;21.89;101478.06;6247140;22;45243;-79
2022/07/14 14:20:36;;;;;;;;;;;;;;;;;;;;;
2022/07/14 14:23:20;;;;;;;;;7.00;7.00;;;;;35.63;21.99;101477.66;6245966;22;71341;-79
2022/07/14 14:25:53;;;;;;;;;7.00;7.00;;;;;35.69;22.07;101488.03;6270974;22;46054;-79
2022/07/14 14:28:23;;;;;;;;;7.00;6.00;;;;;35.68;21.80;101477.22;6247505;22;45260;-79
2022/07/14 14:30:56;;;;;;;;;6.75;6.75;;;;;35.59;22.10;101478.13;6247425;22;45390;-79
2022/07/14 14:33:32;;;;;;;;;6.00;6.00;;;;;35.61;21.91;101466.00;6244471;22;45385;-79
2022/07/14 14:36:24;;;;;;;;;8.00;8.00;;;;;35.69;21.68;101481.69;6244309;22;47714;-79
2022/07/14 14:39:05;;;;;;;;;5.25;5.25;;;;;35.63;20.80;101476.81;6245799;22;45152;-79
2022/07/14 14:41:39;;;;;;;;;10.25;9.00;;;;;35.56;21.30;101469.16;6244852;22;45428;-79
2022/07/14 14:44:17;;;;;;;;;7.25;7.00;;;;;35.59;21.01;101470.78;6244856;22;45434;-79
2022/07/14 14:46:51;;;;;;;;;8.50;8.00;;;;;35.64;21.49;101475.81;6245217;22;48045;-79
2022/07/14 14:49:34;;;;;;;;;3.75;3.00;;;;;35.69;21.11;101466.13;6247101;22;45418;-80
2022/07/14 14:52:07;;;;;;;;;8.00;7.00;;;;;35.77;21.84;101471.69;6244629;22;45550;-79
2022/07/14 14:54:34;;;;;;;;;7.00;7.00;;;;;35.80;21.42;101472.41;6247128;22;45240;-79
2022/07/14 14:57:02;;;;;;;;;8.00;8.00;;;;;35.75;21.52;101479.19;6247061;22;45670;-79
2022/07/14 14:59:38;;;;;;;;;8.25;8.25;;;;;35.56;21.14;101490.22;6244783;22;45437;-79
2022/07/14 15:02:07;;;;;;;;;8.75;8.75;;;;;35.45;20.98;101485.81;6271895;22;45358;-79
2022/07/14 15:04:42;;;;;;;;;9.00;9.00;;;;;35.35;21.30;101479.50;6277811;22;45382;-78
2022/07/14 15:07:16;;;;;;;;;9.25;9.25;;;;;35.28;21.84;101483.84;6277628;22;45279;-79
2022/07/14 15:09:50;;;;;;;;;8.00;8.00;;;;;35.25;21.64;101475.91;6249645;22;45417;-79
2022/07/14 15:12:22;;;;;;;;;8.00;8.00;;;;;35.30;21.93;101474.47;6245085;22;45417;-79
2022/07/14 15:14:55;;;;;;;;;11.00;10.25;;;;;35.40;21.77;101481.78;6252784;22;45584;-80
2022/07/14 15:17:21;;;;;;;;;10.00;9.00;;;;;35.36;22.25;101478.47;6274226;22;45426;-81
2022/07/14 15:19:55;;;;;;;;;7.25;7.25;;;;;35.38;22.11;101473.72;6246853;22;45533;-80
2022/07/14 15:22:20;;;;;;;;;8.75;8.75;;;;;35.42;22.14;101475.16;6246095;22;45497;-81
2022/07/14 15:24:58;;;;;;;;;8.00;8.00;;;;;35.47;22.22;101471.94;6249532;22;45474;-80
2022/07/14 15:27:29;;;;;;;;;10.50;10.00;;;;;35.43;22.28;101462.31;6245999;22;47995;-79
2022/07/14 15:30:20;;;;;;;;;8.25;7.75;;;;;35.35;22.00;101480.34;6249347;22;45334;-79
2022/07/14 15:32:54;;;;;;;;;9.50;8.25;;;;;35.35;22.07;101474.03;6233362;22;45469;-79
2022/07/14 15:35:19;;;;;;;;;10.25;10.25;;;;;35.35;22.49;101474.03;6276629;22;45357;-80
2022/07/14 15:37:45;;;;;;;;;9.25;8.25;;;;;35.30;22.01;101471.72;6276686;22;46300;-79
2022/07/14 15:43:16;;;;;;;;;9.75;9.75;;;;;35.44;22.05;101472.25;6277051;22;45373;-79
2022/07/14 15:45:43;;;;;;;;;9.00;9.00;;;;;35.30;22.24;101468.13;6250821;22;45466;-81
2022/07/14 15:48:14;;;;;;;;;11.50;11.50;;;;;34.94;22.28;101481.59;6279660;22;46243;-80
2022/07/14 15:50:40;;;;;;;;;10.25;10.00;;;;;34.79;22.60;101494.00;6276883;22;45347;-80
2022/07/14 15:53:07;;;;;;;;;11.75;10.00;;;;;34.68;22.84;101476.72;6275046;22;45387;-80
2022/07/14 15:55:33;;;;;;;;;9.00;8.75;;;;;34.64;22.73;101475.31;6273777;22;45608;-80
2022/07/14 15:58:02;;;;;;;;;9.00;9.00;;;;;34.66;22.33;101472.41;6247620;22;46947;-80
2022/07/14 16:00:27;;;;;;;;;8.00;8.00;;;;;34.63;22.37;101473.56;6247425;22;45368;-81
2022/07/14 16:02:59;;;;;;;;;7.25;7.25;;;;;34.57;23.08;101485.09;6275298;22;45625;-79
2022/07/14 16:05:25;;;;;;;;;7.00;7.00;;;;;34.53;22.69;101467.19;6246706;22;45578;-79
2022/07/14 16:08:00;;;;;;;;;5.50;5.50;;;;;34.55;22.61;101481.59;6246965;22;47843;-78
2022/07/14 16:10:28;;;;;;;;;8.00;7.25;;;;;34.55;22.43;101473.38;6247302;22;45497;-79
2022/07/14 16:12:56;;;;;;;;;11.25;10.00;;;;;34.60;22.24;101475.72;6275183;22;45621;-79
2022/07/14 16:15:43;;;;;;;;;6.00;6.00;;;;;34.66;22.33;101470.53;6275148;22;45403;-80
2022/07/14 16:18:30;;;;;;;;;8.00;8.00;;;;;34.80;21.82;101471.94;6272465;22;45875;-80
2022/07/14 16:21:13;;;;;;;;;6.50;6.50;;;;;34.84;21.75;101467.91;6273955;22;45476;-80
2022/07/14 16:23:53;;;;;;;;;6.00;6.00;;;;;34.90;21.88;101469.22;6244746;22;45632;-80
2022/07/14 16:26:53;;;;;;;;;7.00;7.00;;;;;34.88;21.66;101468.47;6272001;22;45394;-81
2022/07/14 16:29:42;;;;;;;;;9.00;8.00;;;;;34.84;21.95;101465.19;6246357;22;47707;-81
2022/07/14 16:32:12;;;;;;;;;7.75;7.75;;;;;34.87;21.76;101472.25;6273434;22;45845;-81
2022/07/14 16:34:40;;;;;;;;;6.25;6.00;;;;;34.92;21.81;101473.53;6247452;22;45404;-80
2022/07/14 16:37:30;;;;;;;;;8.75;7.50;;;;;34.88;21.71;101469.38;6273005;22;45503;-81
2022/07/14 16:44:27;;;;;;;;;6.50;6.25;;;;;34.81;20.96;101467.38;6172768;22;45545;-82
2022/07/14 16:46:59;;;;;;;;;4.00;4.00;;;;;34.83;20.96;101473.53;6148455;23;45370;-81
2022/07/14 16:49:47;;;;;;;;;6.00;6.00;;;;;34.80;21.02;101477.41;6152811;23;45476;-80
2022/07/14 16:52:15;;;;;;;;;5.25;5.25;;;;;34.79;20.72;101478.44;6207603;22;46741;-80
2022/07/14 16:54:41;;;;;;;;;7.50;6.00;;;;;34.81;20.71;101483.78;6275916;22;45705;-81
2022/07/14 16:57:17;;;;;;;;;6.00;5.00;;;;;34.84;20.54;101475.28;6250258;22;45233;-81
2022/07/14 16:59:46;;;;;;;;;5.00;5.00;;;;;34.89;20.31;101492.13;6276068;22;45510;-81
2022/07/14 17:02:36;;;;;;;;;4.25;4.00;;;;;34.95;20.29;101477.84;6275489;22;45689;-80
2022/07/14 17:06:18;;;;;;;;;6.00;6.00;;;;;35.27;19.97;101474.75;6274900;22;45216;-80
2022/07/14 17:07:53;;;;;;;;;4.75;4.75;;;;;36.65;19.19;101482.94;6275775;22;45328;-81
2022/07/14 17:10:22;;;;;;;;;7.25;6.75;;;;;38.45;18.62;101493.22;6247052;22;45450;-82
2022/07/14 17:19:41;;;;;;;;;3.75;2.50;;;;;43.24;14.71;101501.56;6225434;22;45665;-82
2022/07/14 17:22:19;;;;;;;;;5.00;5.00;;;;;44.03;13.92;101512.25;6274648;22;45485;-80
2022/07/14 17:25:14;;;;;;;;;6.00;6.00;;;;;44.06;12.91;101506.28;6274749;22;46060;-82